sensor_id;sensor_type;location;lat;lon;timestamp;pressure;altitude;pressure_sealevel;temperature;humidity
75598;BME280;64179;51.090;-1.786;2023-02-03T00:01:37;102162.09;;;23.21;37.74
75598;BME280;64179;51.090;-1.786;2023-02-03T00:04:03;102158.16;;;23.15;37.97
75598;BME280;64179;51.090;-1.786;2023-02-03T00:06:30;102163.47;;;23.14;37.97
75598;BME280;64179;51.090;-1.786;2023-02-03T00:08:58;102162.75;;;23.12;37.99
75598;BME280;64179;51.090;-1.786;2023-02-03T00:11:26;102175.81;;;23.12;37.91
75598;BME280;64179;51.090;-1.786;2023-02-03T00:13:53;102182.22;;;23.08;37.88
75598;BME280;64179;51.090;-1.786;2023-02-03T00:16:21;102181.72;;;23.03;37.98
75598;BME280;64179;51.090;-1.786;2023-02-03T00:18:46;102190.75;;;22.99;38.16
75598;BME280;64179;51.090;-1.786;2023-02-03T00:21:11;102196.16;;;22.96;38.08
75598;BME280;64179;51.090;-1.786;2023-02-03T00:23:42;102196.41;;;22.93;38.12
75598;BME280;64179;51.090;-1.786;2023-02-03T00:26:15;102183.72;;;22.86;38.34
75598;BME280;64179;51.090;-1.786;2023-02-03T00:28:40;102178.59;;;22.85;38.32
75598;BME280;64179;51.090;-1.786;2023-02-03T00:31:14;102163.13;;;22.82;38.28
75598;BME280;64179;51.090;-1.786;2023-02-03T00:33:40;102159.00;;;22.78;38.31
75598;BME280;64179;51.090;-1.786;2023-02-03T00:36:05;102161.03;;;22.74;38.50
75598;BME280;64179;51.090;-1.786;2023-02-03T00:38:33;102165.50;;;22.72;38.56
75598;BME280;64179;51.090;-1.786;2023-02-03T00:40:59;102164.03;;;22.68;38.42
75598;BME280;64179;51.090;-1.786;2023-02-03T00:43:27;102180.66;;;22.67;38.64
75598;BME280;64179;51.090;-1.786;2023-02-03T00:45:57;102182.56;;;22.65;38.50
75598;BME280;64179;51.090;-1.786;2023-02-03T00:48:25;102180.22;;;22.61;38.61
75598;BME280;64179;51.090;-1.786;2023-02-03T00:50:52;102179.41;;;22.60;38.45
75598;BME280;64179;51.090;-1.786;2023-02-03T00:53:17;102181.28;;;22.58;38.46
75598;BME280;64179;51.090;-1.786;2023-02-03T00:55:45;102165.78;;;22.55;38.68
75598;BME280;64179;51.090;-1.786;2023-02-03T00:58:11;102161.72;;;22.51;38.57
75598;BME280;64179;51.090;-1.786;2023-02-03T01:00:36;102161.72;;;22.51;38.71
75598;BME280;64179;51.090;-1.786;2023-02-03T01:03:02;102154.09;;;22.48;38.73
75598;BME280;64179;51.090;-1.786;2023-02-03T01:05:29;102161.19;;;22.46;38.74
75598;BME280;64179;51.090;-1.786;2023-02-03T01:07:57;102171.88;;;22.43;38.66
75598;BME280;64179;51.090;-1.786;2023-02-03T01:10:25;102180.66;;;22.42;38.76
75598;BME280;64179;51.090;-1.786;2023-02-03T01:12:53;102164.31;;;22.38;38.82
75598;BME280;64179;51.090;-1.786;2023-02-03T01:15:20;102168.91;;;22.35;38.69
75598;BME280;64179;51.090;-1.786;2023-02-03T01:17:46;102161.16;;;22.33;39.02
75598;BME280;64179;51.090;-1.786;2023-02-03T01:20:14;102166.41;;;22.33;38.92
75598;BME280;64179;51.090;-1.786;2023-02-03T01:22:43;102155.31;;;22.30;39.08
75598;BME280;64179;51.090;-1.786;2023-02-03T01:25:09;102147.56;;;22.28;38.87
75598;BME280;64179;51.090;-1.786;2023-02-03T01:27:36;102151.34;;;22.24;38.99
75598;BME280;64179;51.090;-1.786;2023-02-03T01:30:04;102148.09;;;22.21;38.89
75598;BME280;64179;51.090;-1.786;2023-02-03T01:32:32;102152.59;;;22.19;39.04
75598;BME280;64179;51.090;-1.786;2023-02-03T01:35:00;102143.38;;;22.13;39.17
75598;BME280;64179;51.090;-1.786;2023-02-03T01:37:25;102147.66;;;22.14;39.05
75598;BME280;64179;51.090;-1.786;2023-02-03T01:39:53;102147.75;;;22.13;39.03
75598;BME280;64179;51.090;-1.786;2023-02-03T01:42:21;102149.66;;;22.11;39.27
75598;BME280;64179;51.090;-1.786;2023-02-03T01:44:49;102145.38;;;22.10;39.18
75598;BME280;64179;51.090;-1.786;2023-02-03T01:47:37;102144.63;;;22.08;39.26
75598;BME280;64179;51.090;-1.786;2023-02-03T01:50:31;102140.44;;;22.05;39.06
75598;BME280;64179;51.090;-1.786;2023-02-03T01:53:01;102143.16;;;22.03;39.13
75598;BME280;64179;51.090;-1.786;2023-02-03T01:55:34;102143.16;;;22.03;39.29
75598;BME280;64179;51.090;-1.786;2023-02-03T01:58:11;102139.78;;;22.01;39.45
75598;BME280;64179;51.090;-1.786;2023-02-03T02:00:37;102123.41;;;21.99;39.01
75598;BME280;64179;51.090;-1.786;2023-02-03T02:03:06;102122.66;;;21.97;38.99
75598;BME280;64179;51.090;-1.786;2023-02-03T02:05:57;102123.59;;;21.96;39.08
75598;BME280;64179;51.090;-1.786;2023-02-03T02:08:26;102130.69;;;21.94;39.17
75598;BME280;64179;51.090;-1.786;2023-02-03T02:10:52;102130.78;;;21.93;39.13
75598;BME280;64179;51.090;-1.786;2023-02-03T02:13:18;102121.34;;;21.90;39.31
75598;BME280;64179;51.090;-1.786;2023-02-03T02:27:08;102114.84;;;21.83;39.35
75598;BME280;64179;51.090;-1.786;2023-02-03T02:35:02;102130.09;;;21.77;39.39
75598;BME280;64179;51.090;-1.786;2023-02-03T02:43:09;102122.56;;;21.72;39.33
75598;BME280;64179;51.090;-1.786;2023-02-03T02:45:50;102117.53;;;21.69;39.46
75598;BME280;64179;51.090;-1.786;2023-02-03T02:48:43;102122.97;;;21.66;39.50
75598;BME280;64179;51.090;-1.786;2023-02-03T02:51:11;102122.97;;;21.66;39.69
75598;BME280;64179;51.090;-1.786;2023-02-03T02:53:45;102135.28;;;21.64;39.30
75598;BME280;64179;51.090;-1.786;2023-02-03T02:56:14;102133.59;;;21.63;39.57
75598;BME280;64179;51.090;-1.786;2023-02-03T02:58:43;102135.47;;;21.61;39.56
75598;BME280;64179;51.090;-1.786;2023-02-03T03:01:13;102128.59;;;21.60;39.33
75598;BME280;64179;51.090;-1.786;2023-02-03T03:03:39;102129.41;;;21.60;39.38
75598;BME280;64179;51.090;-1.786;2023-02-03T03:06:12;102125.44;;;21.55;39.35
75598;BME280;64179;51.090;-1.786;2023-02-03T03:08:56;102127.06;;;21.56;39.51
75598;BME280;64179;51.090;-1.786;2023-02-03T03:11:32;102134.19;;;21.54;39.60
75598;BME280;64179;51.090;-1.786;2023-02-03T03:14:01;102135.22;;;21.51;39.47
75598;BME280;64179;51.090;-1.786;2023-02-03T03:16:33;102144.81;;;21.51;39.64
75598;BME280;64179;51.090;-1.786;2023-02-03T03:19:11;102143.16;;;21.50;39.48
75598;BME280;64179;51.090;-1.786;2023-02-03T03:21:53;102126.00;;;21.46;39.60
75598;BME280;64179;51.090;-1.786;2023-02-03T03:24:26;102134.75;;;21.45;39.75
75598;BME280;64179;51.090;-1.786;2023-02-03T03:27:01;102134.97;;;21.42;39.69
75598;BME280;64179;51.090;-1.786;2023-02-03T03:29:33;102129.75;;;21.42;39.48
75598;BME280;64179;51.090;-1.786;2023-02-03T03:32:03;102136.81;;;21.40;39.68
75598;BME280;64179;51.090;-1.786;2023-02-03T03:34:30;102133.28;;;21.41;39.59
75598;BME280;64179;51.090;-1.786;2023-02-03T03:39:54;102138.91;;;21.35;39.52
75598;BME280;64179;51.090;-1.786;2023-02-03T03:42:30;102133.69;;;21.35;39.67
75598;BME280;64179;51.090;-1.786;2023-02-03T03:45:08;102131.28;;;21.32;39.69
75598;BME280;64179;51.090;-1.786;2023-02-03T03:47:47;102128.84;;;21.29;39.77
75598;BME280;64179;51.090;-1.786;2023-02-03T03:50:20;102131.56;;;21.27;39.77
75598;BME280;64179;51.090;-1.786;2023-02-03T03:52:47;102141.88;;;21.29;39.73
75598;BME280;64179;51.090;-1.786;2023-02-03T03:55:15;102150.69;;;21.28;39.59
75598;BME280;64179;51.090;-1.786;2023-02-03T03:57:57;102141.81;;;21.30;39.70
75598;BME280;64179;51.090;-1.786;2023-02-03T04:00:28;102138.56;;;21.27;39.83
75598;BME280;64179;51.090;-1.786;2023-02-03T04:02:57;102134.25;;;21.26;39.57
75598;BME280;64179;51.090;-1.786;2023-02-03T04:05:25;102152.63;;;21.24;39.85
75598;BME280;64179;51.090;-1.786;2023-02-03T04:07:53;102150.00;;;21.24;39.81
75598;BME280;64179;51.090;-1.786;2023-02-03T04:10:37;102161.38;;;21.23;39.86
75598;BME280;64179;51.090;-1.786;2023-02-03T04:13:06;102150.41;;;21.18;39.72
75598;BME280;64179;51.090;-1.786;2023-02-03T04:15:32;102153.00;;;21.18;39.55
75598;BME280;64179;51.090;-1.786;2023-02-03T04:17:58;102141.72;;;21.17;39.64
75598;BME280;64179;51.090;-1.786;2023-02-03T04:20:26;102146.13;;;21.17;39.72
75598;BME280;64179;51.090;-1.786;2023-02-03T04:22:52;102148.00;;;21.15;39.71
75598;BME280;64179;51.090;-1.786;2023-02-03T04:25:17;102145.44;;;21.13;39.67
75598;BME280;64179;51.090;-1.786;2023-02-03T04:27:45;102154.09;;;21.14;39.46
75598;BME280;64179;51.090;-1.786;2023-02-03T04:30:12;102162.72;;;21.16;39.77
75598;BME280;64179;51.090;-1.786;2023-02-03T04:32:37;102164.63;;;21.12;39.61
75598;BME280;64179;51.090;-1.786;2023-02-03T04:35:04;102170.06;;;21.09;39.57
75598;BME280;64179;51.090;-1.786;2023-02-03T04:37:30;102173.41;;;21.11;39.65
75598;BME280;64179;51.090;-1.786;2023-02-03T04:39:56;102175.44;;;21.06;40.13
75598;BME280;64179;51.090;-1.786;2023-02-03T04:42:24;102168.38;;;21.08;39.65
75598;BME280;64179;51.090;-1.786;2023-02-03T04:44:50;102171.91;;;21.07;39.50
75598;BME280;64179;51.090;-1.786;2023-02-03T04:47:15;102175.44;;;21.06;39.68
75598;BME280;64179;51.090;-1.786;2023-02-03T04:49:44;102186.72;;;21.07;39.60
75598;BME280;64179;51.090;-1.786;2023-02-03T04:52:10;102192.97;;;21.04;39.63
75598;BME280;64179;51.090;-1.786;2023-02-03T04:54:38;102188.69;;;21.03;39.74
75598;BME280;64179;51.090;-1.786;2023-02-03T04:57:04;102190.66;;;21.00;39.76
75598;BME280;64179;51.090;-1.786;2023-02-03T04:59:32;102196.53;;;21.03;39.58
75598;BME280;64179;51.090;-1.786;2023-02-03T05:01:57;102203.59;;;21.01;39.81
75598;BME280;64179;51.090;-1.786;2023-02-03T05:04:25;102201.94;;;21.00;39.59
75598;BME280;64179;51.090;-1.786;2023-02-03T05:06:51;102209.00;;;20.98;39.58
75598;BME280;64179;51.090;-1.786;2023-02-03T05:09:16;102207.31;;;20.97;39.56
75598;BME280;64179;51.090;-1.786;2023-02-03T05:11:42;102212.53;;;20.97;39.68
75598;BME280;64179;51.090;-1.786;2023-02-03T05:14:09;102207.53;;;20.94;39.76
75598;BME280;64179;51.090;-1.786;2023-02-03T05:16:35;102211.97;;;20.92;39.58
75598;BME280;64179;51.090;-1.786;2023-02-03T05:19:00;102205.16;;;20.90;39.60
75598;BME280;64179;51.090;-1.786;2023-02-03T05:21:26;102207.78;;;20.90;39.88
75598;BME280;64179;51.090;-1.786;2023-02-03T05:23:51;102204.34;;;20.89;39.70
75598;BME280;64179;51.090;-1.786;2023-02-03T05:26:17;102204.34;;;20.89;39.83
75598;BME280;64179;51.090;-1.786;2023-02-03T05:28:45;102209.56;;;20.89;39.81
75598;BME280;64179;51.090;-1.786;2023-02-03T05:31:10;102198.28;;;20.89;39.90
75598;BME280;64179;51.090;-1.786;2023-02-03T05:33:35;102201.06;;;20.86;39.62
75598;BME280;64179;51.090;-1.786;2023-02-03T05:36:01;102201.34;;;20.81;39.79
75598;BME280;64179;51.090;-1.786;2023-02-03T05:38:26;102213.28;;;20.85;39.75
75598;BME280;64179;51.090;-1.786;2023-02-03T05:40:52;102212.44;;;20.85;39.84
75598;BME280;64179;51.090;-1.786;2023-02-03T05:43:39;102213.47;;;20.82;39.78
75598;BME280;64179;51.090;-1.786;2023-02-03T05:46:05;102217.00;;;20.81;39.78
75598;BME280;64179;51.090;-1.786;2023-02-03T05:48:31;102208.41;;;20.79;39.78
75598;BME280;64179;51.090;-1.786;2023-02-03T05:50:57;102225.75;;;20.80;39.58
75598;BME280;64179;51.090;-1.786;2023-02-03T05:53:23;102211.97;;;20.78;39.83
75598;BME280;64179;51.090;-1.786;2023-02-03T05:55:48;102228.63;;;20.75;39.84
75598;BME280;64179;51.090;-1.786;2023-02-03T05:58:14;102226.97;;;20.74;39.92
75598;BME280;64179;51.090;-1.786;2023-02-03T06:00:40;102239.91;;;20.76;39.78
75598;BME280;64179;51.090;-1.786;2023-02-03T06:03:08;102230.75;;;20.69;39.78
75598;BME280;64179;51.090;-1.786;2023-02-03T06:05:34;102235.41;;;20.64;40.00
75598;BME280;64179;51.090;-1.786;2023-02-03T06:08:05;102234.41;;;20.66;39.85
75598;BME280;64179;51.090;-1.786;2023-02-03T06:10:31;102242.13;;;20.68;39.85
75598;BME280;64179;51.090;-1.786;2023-02-03T06:12:57;102234.22;;;20.69;39.99
75598;BME280;64179;51.090;-1.786;2023-02-03T06:15:22;102237.88;;;20.81;39.63
75598;BME280;64179;51.090;-1.786;2023-02-03T06:17:50;102242.72;;;20.87;39.53
75598;BME280;64179;51.090;-1.786;2023-02-03T06:20:17;102251.03;;;20.94;39.37
75598;BME280;64179;51.090;-1.786;2023-02-03T06:22:46;102263.50;;;21.03;39.47
75598;BME280;64179;51.090;-1.786;2023-02-03T06:25:11;102260.25;;;21.13;39.20
75598;BME280;64179;51.090;-1.786;2023-02-03T06:27:38;102257.88;;;21.25;39.03
75598;BME280;64179;51.090;-1.786;2023-02-03T06:30:04;102271.09;;;21.36;38.83
75598;BME280;64179;51.090;-1.786;2023-02-03T06:32:30;102262.53;;;21.48;38.72
75598;BME280;64179;51.090;-1.786;2023-02-03T06:34:55;102261.00;;;21.58;38.62
75598;BME280;64179;51.090;-1.786;2023-02-03T06:37:20;102255.97;;;21.69;38.48
75598;BME280;64179;51.090;-1.786;2023-02-03T06:39:46;102257.81;;;21.81;38.25
75598;BME280;64179;51.090;-1.786;2023-02-03T06:42:13;102248.09;;;21.97;37.93
75598;BME280;64179;51.090;-1.786;2023-02-03T06:44:42;102237.69;;;22.10;37.63
75598;BME280;64179;51.090;-1.786;2023-02-03T06:47:10;102252.38;;;22.25;37.62
75598;BME280;64179;51.090;-1.786;2023-02-03T06:49:35;102260.13;;;22.39;37.16
75598;BME280;64179;51.090;-1.786;2023-02-03T06:52:01;102251.56;;;22.50;37.16
75598;BME280;64179;51.090;-1.786;2023-02-03T06:54:26;102250.03;;;22.60;37.07
75598;BME280;64179;51.090;-1.786;2023-02-03T06:56:54;102251.84;;;22.72;36.88
75598;BME280;64179;51.090;-1.786;2023-02-03T06:59:19;102254.78;;;22.80;36.87
75598;BME280;64179;51.090;-1.786;2023-02-03T07:01:45;102252.47;;;22.88;36.56
75598;BME280;64179;51.090;-1.786;2023-02-03T07:04:12;102265.91;;;22.97;36.63
75598;BME280;64179;51.090;-1.786;2023-02-03T07:06:38;102266.31;;;23.03;36.56
75598;BME280;64179;51.090;-1.786;2023-02-03T07:09:04;102264.84;;;23.12;36.47
75598;BME280;64179;51.090;-1.786;2023-02-03T07:11:37;102272.09;;;23.21;36.34
75598;BME280;64179;51.090;-1.786;2023-02-03T07:14:03;102269.00;;;23.27;36.35
75598;BME280;64179;51.090;-1.786;2023-02-03T07:16:30;102283.88;;;23.39;36.25
75598;BME280;64179;51.090;-1.786;2023-02-03T07:18:58;102286.84;;;23.47;35.92
75598;BME280;64179;51.090;-1.786;2023-02-03T07:21:24;102290.69;;;23.54;35.95
75598;BME280;64179;51.090;-1.786;2023-02-03T07:23:50;102288.72;;;23.58;35.82
75598;BME280;64179;51.090;-1.786;2023-02-03T07:26:16;102293.31;;;23.54;36.02
75598;BME280;64179;51.090;-1.786;2023-02-03T07:28:42;102295.22;;;23.52;35.98
75598;BME280;64179;51.090;-1.786;2023-02-03T07:31:08;102291.84;;;23.50;36.05
75598;BME280;64179;51.090;-1.786;2023-02-03T07:33:35;102295.41;;;23.49;36.08
75598;BME280;64179;51.090;-1.786;2023-02-03T07:36:03;102299.00;;;23.48;36.00
75598;BME280;64179;51.090;-1.786;2023-02-03T07:38:29;102300.88;;;23.46;36.15
75598;BME280;64179;51.090;-1.786;2023-02-03T07:40:59;102299.41;;;23.42;35.80
75598;BME280;64179;51.090;-1.786;2023-02-03T07:43:25;102301.28;;;23.40;36.23
75598;BME280;64179;51.090;-1.786;2023-02-03T07:45:50;102313.63;;;23.38;36.16
75598;BME280;64179;51.090;-1.786;2023-02-03T07:48:16;102313.63;;;23.38;36.31
75598;BME280;64179;51.090;-1.786;2023-02-03T07:50:41;102313.63;;;23.38;36.20
75598;BME280;64179;51.090;-1.786;2023-02-03T07:53:07;102326.09;;;23.35;36.53
75598;BME280;64179;51.090;-1.786;2023-02-03T07:55:37;102328.72;;;23.35;36.72
75598;BME280;64179;51.090;-1.786;2023-02-03T07:58:03;102331.25;;;23.36;37.18
75598;BME280;64179;51.090;-1.786;2023-02-03T08:00:32;102339.63;;;23.41;37.25
75598;BME280;64179;51.090;-1.786;2023-02-03T08:02:57;102343.78;;;23.44;37.13
75598;BME280;64179;51.090;-1.786;2023-02-03T08:05:23;102344.47;;;23.47;36.89
75598;BME280;64179;51.090;-1.786;2023-02-03T08:07:48;102344.06;;;23.53;36.87
75598;BME280;64179;51.090;-1.786;2023-02-03T08:10:14;102334.09;;;23.58;36.83
75598;BME280;64179;51.090;-1.786;2023-02-03T08:12:43;102336.28;;;23.64;36.81
75598;BME280;64179;51.090;-1.786;2023-02-03T08:15:11;102344.66;;;23.69;36.57
75598;BME280;64179;51.090;-1.786;2023-02-03T08:17:36;102352.53;;;23.69;36.58
75598;BME280;64179;51.090;-1.786;2023-02-03T08:20:05;102354.91;;;23.73;36.63
75598;BME280;64179;51.090;-1.786;2023-02-03T08:22:31;102358.28;;;23.75;36.59
75598;BME280;64179;51.090;-1.786;2023-02-03T08:24:56;102361.84;;;23.74;36.57
75598;BME280;64179;51.090;-1.786;2023-02-03T08:27:24;102370.63;;;23.73;36.58
75598;BME280;64179;51.090;-1.786;2023-02-03T08:29:50;102369.69;;;23.74;36.38
75598;BME280;64179;51.090;-1.786;2023-02-03T08:32:21;102374.94;;;23.74;36.49
75598;BME280;64179;51.090;-1.786;2023-02-03T08:34:47;102371.47;;;23.73;36.58
75598;BME280;64179;51.090;-1.786;2023-02-03T08:37:14;102374.94;;;23.74;36.41
75598;BME280;64179;51.090;-1.786;2023-02-03T08:39:40;102376.72;;;23.73;36.35
75598;BME280;64179;51.090;-1.786;2023-02-03T08:42:06;102373.16;;;23.74;36.50
75598;BME280;64179;51.090;-1.786;2023-02-03T08:44:32;102371.38;;;23.75;36.47
75598;BME280;64179;51.090;-1.786;2023-02-03T08:46:59;102370.84;;;23.69;36.44
75598;BME280;64179;51.090;-1.786;2023-02-03T08:49:29;102362.47;;;23.64;36.55
75598;BME280;64179;51.090;-1.786;2023-02-03T08:51:57;102368.66;;;23.63;36.74
75598;BME280;64179;51.090;-1.786;2023-02-03T08:54:25;102370.78;;;23.58;36.73
75598;BME280;64179;51.090;-1.786;2023-02-03T08:56:51;102376.44;;;23.52;36.85
75598;BME280;64179;51.090;-1.786;2023-02-03T08:59:16;102382.81;;;23.48;36.79
75598;BME280;64179;51.090;-1.786;2023-02-03T09:01:42;102384.88;;;23.43;36.96
75598;BME280;64179;51.090;-1.786;2023-02-03T09:04:13;102385.09;;;23.40;37.02
75598;BME280;64179;51.090;-1.786;2023-02-03T09:06:39;102381.00;;;23.36;37.07
75598;BME280;64179;51.090;-1.786;2023-02-03T09:09:04;102385.50;;;23.34;37.15
75598;BME280;64179;51.090;-1.786;2023-02-03T09:11:30;102391.81;;;23.32;37.26
75598;BME280;64179;51.090;-1.786;2023-02-03T09:13:55;102387.59;;;23.29;37.16
75598;BME280;64179;51.090;-1.786;2023-02-03T09:16:22;102389.69;;;23.24;37.25
75598;BME280;64179;51.090;-1.786;2023-02-03T09:18:50;102386.31;;;23.22;37.37
75598;BME280;64179;51.090;-1.786;2023-02-03T09:21:16;102395.94;;;23.21;37.20
75598;BME280;64179;51.090;-1.786;2023-02-03T09:23:44;102391.16;;;23.15;37.39
75598;BME280;64179;51.090;-1.786;2023-02-03T09:26:13;102403.50;;;23.13;37.52
75598;BME280;64179;51.090;-1.786;2023-02-03T09:28:39;102391.44;;;23.11;37.89
75598;BME280;64179;51.090;-1.786;2023-02-03T09:31:10;102394.28;;;23.08;37.77
75598;BME280;64179;51.090;-1.786;2023-02-03T09:33:39;102404.94;;;23.05;38.00
75598;BME280;64179;51.090;-1.786;2023-02-03T09:36:06;102403.47;;;23.01;38.11
75598;BME280;64179;51.090;-1.786;2023-02-03T09:38:32;102395.09;;;22.96;38.00
75598;BME280;64179;51.090;-1.786;2023-02-03T09:41:01;102390.91;;;22.93;38.24
75598;BME280;64179;51.090;-1.786;2023-02-03T09:46:21;102406.88;;;22.88;38.10
75598;BME280;64179;51.090;-1.786;2023-02-03T09:48:54;102414.94;;;22.85;37.94
75598;BME280;64179;51.090;-1.786;2023-02-03T09:51:29;102412.72;;;22.79;38.20
75598;BME280;64179;51.090;-1.786;2023-02-03T09:54:01;102418.91;;;22.78;38.28
75598;BME280;64179;51.090;-1.786;2023-02-03T09:56:38;102420.97;;;22.73;38.32
75598;BME280;64179;51.090;-1.786;2023-02-03T09:59:04;102418.53;;;22.70;38.30
75598;BME280;64179;51.090;-1.786;2023-02-03T10:01:42;102422.19;;;22.68;38.42
75598;BME280;64179;51.090;-1.786;2023-02-03T10:06:59;102445.28;;;22.61;38.47
75598;BME280;64179;51.090;-1.786;2023-02-03T10:15:19;102455.56;;;22.50;38.63
75598;BME280;64179;51.090;-1.786;2023-02-03T10:17:40;102458.41;;;22.47;38.68
75598;BME280;64179;51.090;-1.786;2023-02-03T10:22:40;102451.88;;;22.40;38.74
75598;BME280;64179;51.090;-1.786;2023-02-03T10:27:40;102456.53;;;22.35;38.90
75598;BME280;64179;51.090;-1.786;2023-02-03T10:30:21;102466.38;;;22.31;38.83
75598;BME280;64179;51.090;-1.786;2023-02-03T10:32:55;102462.16;;;22.29;38.96
75598;BME280;64179;51.090;-1.786;2023-02-03T10:35:27;102465.91;;;22.25;39.01
75598;BME280;64179;51.090;-1.786;2023-02-03T10:37:57;102471.34;;;22.22;38.83
75598;BME280;64179;51.090;-1.786;2023-02-03T10:40:25;102467.03;;;22.21;38.86
75598;BME280;64179;51.090;-1.786;2023-02-03T10:42:51;102471.41;;;22.20;38.92
75598;BME280;64179;51.090;-1.786;2023-02-03T10:45:39;102460.28;;;22.17;38.73
75598;BME280;64179;51.090;-1.786;2023-02-03T10:48:06;102471.72;;;22.16;39.40
75598;BME280;64179;51.090;-1.786;2023-02-03T10:50:35;102462.09;;;22.16;39.22
75598;BME280;64179;51.090;-1.786;2023-02-03T10:53:31;102455.28;;;22.14;39.23
75598;BME280;64179;51.090;-1.786;2023-02-03T10:56:07;102455.56;;;22.09;39.42
75598;BME280;64179;51.090;-1.786;2023-02-03T10:58:37;102455.56;;;22.09;39.31
75598;BME280;64179;51.090;-1.786;2023-02-03T11:01:10;102458.25;;;22.08;39.13
75598;BME280;64179;51.090;-1.786;2023-02-03T11:03:37;102467.03;;;22.07;39.16
75598;BME280;64179;51.090;-1.786;2023-02-03T11:06:10;102472.38;;;22.05;39.36
75598;BME280;64179;51.090;-1.786;2023-02-03T11:08:44;102472.63;;;22.00;39.22
75598;BME280;64179;51.090;-1.786;2023-02-03T11:11:19;102483.06;;;22.00;39.17
75598;BME280;64179;51.090;-1.786;2023-02-03T11:13:45;102472.81;;;21.97;39.32
75598;BME280;64179;51.090;-1.786;2023-02-03T11:16:17;102474.00;;;21.92;39.34
75598;BME280;64179;51.090;-1.786;2023-02-03T11:19:20;102471.38;;;21.92;39.47
75598;BME280;64179;51.090;-1.786;2023-02-03T11:21:46;102469.63;;;21.92;39.47
75598;BME280;64179;51.090;-1.786;2023-02-03T11:24:31;102466.25;;;21.90;39.37
75598;BME280;64179;51.090;-1.786;2023-02-03T11:27:00;102466.44;;;21.87;39.42
75598;BME280;64179;51.090;-1.786;2023-02-03T11:29:35;102459.44;;;21.88;39.75
75598;BME280;64179;51.090;-1.786;2023-02-03T11:32:06;102450.84;;;21.86;39.46
75598;BME280;64179;51.090;-1.786;2023-02-03T11:37:42;102437.88;;;21.84;39.54
75598;BME280;64179;51.090;-1.786;2023-02-03T11:42:44;102439.75;;;21.82;39.52
75598;BME280;64179;51.090;-1.786;2023-02-03T11:45:13;102437.31;;;21.79;39.61
75598;BME280;64179;51.090;-1.786;2023-02-03T11:47:46;102446.09;;;21.78;39.58
75598;BME280;64179;51.090;-1.786;2023-02-03T11:50:25;102437.41;;;21.78;39.71
75598;BME280;64179;51.090;-1.786;2023-02-03T12:22:08;102417.25;;;21.66;39.83
75598;BME280;64179;51.090;-1.786;2023-02-03T12:29:43;102424.41;;;21.62;39.64
75598;BME280;64179;51.090;-1.786;2023-02-03T12:32:36;102428.81;;;21.61;39.64
75598;BME280;64179;51.090;-1.786;2023-02-03T12:43:35;102428.16;;;21.58;39.75
75598;BME280;64179;51.090;-1.786;2023-02-03T12:46:17;102426.47;;;21.57;39.76
75598;BME280;64179;51.090;-1.786;2023-02-03T12:51:49;102431.69;;;21.57;39.69
75598;BME280;64179;51.090;-1.786;2023-02-03T12:56:50;102430.22;;;21.53;39.77
75598;BME280;64179;51.090;-1.786;2023-02-03T12:59:19;102428.34;;;21.55;39.77
75598;BME280;64179;51.090;-1.786;2023-02-03T13:01:55;102429.38;;;21.52;39.68
75598;BME280;64179;51.090;-1.786;2023-02-03T13:04:37;102440.84;;;21.50;39.79
75598;BME280;64179;51.090;-1.786;2023-02-03T13:12:50;102445.22;;;21.49;39.94
75598;BME280;64179;51.090;-1.786;2023-02-03T13:15:31;102435.88;;;21.45;40.00
75598;BME280;64179;51.090;-1.786;2023-02-03T13:18:31;102446.22;;;21.47;39.86
75598;BME280;64179;51.090;-1.786;2023-02-03T13:20:58;102455.84;;;21.46;39.86
75598;BME280;64179;51.090;-1.786;2023-02-03T13:23:27;102461.25;;;21.43;39.87
75598;BME280;64179;51.090;-1.786;2023-02-03T13:26:16;102454.25;;;21.44;40.09
75598;BME280;64179;51.090;-1.786;2023-02-03T13:31:42;102449.13;;;21.42;39.92
75598;BME280;64179;51.090;-1.786;2023-02-03T13:37:30;102447.50;;;21.40;39.72
75598;BME280;64179;51.090;-1.786;2023-02-03T13:43:12;102441.56;;;21.38;39.93
75598;BME280;64179;51.090;-1.786;2023-02-03T13:45:48;102434.66;;;21.37;39.93
75598;BME280;64179;51.090;-1.786;2023-02-03T13:48:18;102437.34;;;21.35;39.77
75598;BME280;64179;51.090;-1.786;2023-02-03T13:50:47;102431.47;;;21.32;39.87
75598;BME280;64179;51.090;-1.786;2023-02-03T13:53:19;102445.44;;;21.31;39.81
75598;BME280;64179;51.090;-1.786;2023-02-03T13:58:23;102441.22;;;21.28;40.16
75598;BME280;64179;51.090;-1.786;2023-02-03T14:03:16;102452.63;;;21.27;40.05
75598;BME280;64179;51.090;-1.786;2023-02-03T14:05:45;102447.31;;;21.29;40.10
75598;BME280;64179;51.090;-1.786;2023-02-03T14:08:40;102454.03;;;21.33;40.09
75598;BME280;64179;51.090;-1.786;2023-02-03T14:19:00;102451.50;;;21.75;39.22
75598;BME280;64179;51.090;-1.786;2023-02-03T14:21:45;102456.16;;;21.84;39.01
75598;BME280;64179;51.090;-1.786;2023-02-03T14:24:12;102442.94;;;22.01;38.53
75598;BME280;64179;51.090;-1.786;2023-02-03T14:26:43;102451.44;;;22.19;38.61
75598;BME280;64179;51.090;-1.786;2023-02-03T14:29:35;102448.41;;;22.39;38.27
75598;BME280;64179;51.090;-1.786;2023-02-03T14:32:05;102450.88;;;22.55;38.10
75598;BME280;64179;51.090;-1.786;2023-02-03T14:34:40;102445.53;;;22.71;37.61
75598;BME280;64179;51.090;-1.786;2023-02-03T14:45:55;102456.19;;;23.21;36.95
75598;BME280;64179;51.090;-1.786;2023-02-03T14:54:23;102452.50;;;23.51;37.19
75598;BME280;64179;51.090;-1.786;2023-02-03T15:02:27;102464.56;;;23.79;36.48
75598;BME280;64179;51.090;-1.786;2023-02-03T15:10:26;102458.06;;;23.97;36.38
75598;BME280;64179;51.090;-1.786;2023-02-03T15:12:56;102466.44;;;24.02;36.32
75598;BME280;64179;51.090;-1.786;2023-02-03T15:15:32;102472.53;;;24.02;36.26
75598;BME280;64179;51.090;-1.786;2023-02-03T15:18:20;102470.84;;;24.01;36.28
75598;BME280;64179;51.090;-1.786;2023-02-03T15:20:51;102471.88;;;23.99;36.40
75598;BME280;64179;51.090;-1.786;2023-02-03T15:23:24;102467.06;;;23.93;36.55